createdAt,value
2023-02-11T00:02:57.792Z,96.84
2023-02-11T00:06:59.377Z,96.06
2023-02-11T00:11:01.445Z,96.22
2023-02-11T00:15:04.141Z,96.10
2023-02-11T00:19:06.722Z,96.37
2023-02-11T00:23:09.003Z,96.19
2023-02-11T00:27:10.550Z,95.90
2023-02-11T00:31:13.480Z,96.37
2023-02-11T00:35:15.410Z,96.61
2023-02-11T00:39:17.020Z,96.67
2023-02-11T00:43:18.572Z,97.26
2023-02-11T00:47:20.332Z,96.61
2023-02-11T00:51:22.012Z,96.97
2023-02-11T00:55:23.560Z,96.66
2023-02-11T00:59:25.159Z,95.89
2023-02-11T01:03:26.893Z,95.92
2023-02-11T01:07:36.703Z,95.97
2023-02-11T01:11:38.357Z,95.64
2023-02-11T01:15:39.952Z,95.65
2023-02-11T01:19:41.657Z,95.29
2023-02-11T01:23:43.188Z,95.15
2023-02-11T01:27:46.598Z,94.95
2023-02-11T01:31:48.334Z,94.44
2023-02-11T01:35:50.439Z,94.08
2023-02-11T01:39:52.229Z,93.75
2023-02-11T01:43:53.781Z,93.59
2023-02-11T01:47:55.308Z,93.40
2023-02-11T01:52:26.409Z,92.96
2023-02-11T01:56:47.854Z,92.86
2023-02-11T02:00:50.433Z,92.82
2023-02-11T02:05:15.133Z,92.64
2023-02-11T02:09:28.089Z,92.46
2023-02-11T02:13:32.526Z,92.48
2023-02-11T02:17:47.515Z,92.37
2023-02-11T02:22:34.872Z,92.31
2023-02-11T02:27:10.604Z,92.19
2023-02-11T02:31:59.096Z,91.90
2023-02-11T02:36:18.244Z,92.46
2023-02-11T02:40:35.198Z,92.58
2023-02-11T02:44:36.791Z,93.35
2023-02-11T02:48:38.716Z,92.99
2023-02-11T02:52:43.035Z,93.32
2023-02-11T02:57:18.897Z,93.47
2023-02-11T03:01:57.868Z,92.98
2023-02-11T03:06:19.480Z,92.68
2023-02-11T03:10:30.020Z,92.17
2023-02-11T03:14:33.034Z,92.23
2023-02-11T03:18:36.888Z,91.69
2023-02-11T03:22:46.386Z,91.69
2023-02-11T03:26:53.944Z,91.68
2023-02-11T03:31:07.634Z,91.99
2023-02-11T03:35:20.194Z,91.94
2023-02-11T03:39:27.451Z,92.68
2023-02-11T03:43:35.283Z,92.67
2023-02-11T03:47:39.887Z,92.71
2023-02-11T03:51:41.877Z,92.81
2023-02-11T03:55:44.604Z,93.62
2023-02-11T03:59:58.615Z,93.69
2023-02-11T04:04:00.166Z,95.22
2023-02-11T04:08:01.862Z,94.94
2023-02-11T04:12:03.596Z,94.85
2023-02-11T04:16:05.394Z,94.75
2023-02-11T04:20:07.654Z,95.26
2023-02-11T04:24:09.208Z,95.79
2023-02-11T04:28:10.812Z,95.39
2023-02-11T04:32:12.476Z,95.83
2023-02-11T04:36:14.067Z,96.07
2023-02-11T04:40:15.707Z,95.61
2023-02-11T04:44:17.315Z,94.47
2023-02-11T04:48:18.850Z,94.76
2023-02-11T04:52:20.470Z,94.86
2023-02-11T04:56:22.027Z,94.20
2023-02-11T05:00:23.565Z,93.88
2023-02-11T05:04:25.154Z,93.99
2023-02-11T05:08:26.761Z,93.53
2023-02-11T05:12:28.435Z,93.66
2023-02-11T05:16:30.011Z,93.46
2023-02-11T05:20:31.632Z,93.91
2023-02-11T05:24:33.563Z,93.92
2023-02-11T05:28:35.689Z,93.68
2023-02-11T05:32:37.288Z,94.06
2023-02-11T05:36:38.903Z,94.56
2023-02-11T05:40:40.985Z,94.57
2023-02-11T05:44:42.525Z,94.82
2023-02-11T05:48:44.163Z,94.68
2023-02-11T05:52:45.740Z,94.43
2023-02-11T05:56:47.536Z,93.97
2023-02-11T06:00:49.106Z,94.00
2023-02-11T06:04:50.670Z,94.42
2023-02-11T06:08:52.273Z,94.20
2023-02-11T06:12:53.877Z,94.11
2023-02-11T06:16:55.494Z,94.24
2023-02-11T06:20:57.125Z,93.86
2023-02-11T06:25:01.649Z,93.56
2023-02-11T06:29:04.859Z,93.36
2023-02-11T06:33:06.426Z,93.86
2023-02-11T06:37:07.969Z,93.68
2023-02-11T06:41:11.567Z,93.29
2023-02-11T06:45:13.505Z,93.13
2023-02-11T06:49:15.759Z,93.32
2023-02-11T06:53:17.756Z,93.75
2023-02-11T06:57:20.113Z,93.61
2023-02-11T07:01:22.647Z,93.68
2023-02-11T07:05:24.254Z,93.28
2023-02-11T07:09:25.869Z,93.39
2023-02-11T07:13:27.564Z,93.20
2023-02-11T07:17:29.136Z,93.26
2023-02-11T07:21:31.879Z,93.55
2023-02-11T07:25:33.907Z,93.49
2023-02-11T07:29:35.509Z,93.00
2023-02-11T07:33:38.004Z,92.44
2023-02-11T07:37:39.578Z,91.92
2023-02-11T07:41:41.309Z,91.53
2023-02-11T07:45:42.921Z,91.41
2023-02-11T07:49:45.478Z,91.01
2023-02-11T07:53:48.575Z,90.34
2023-02-11T07:57:50.857Z,89.61
2023-02-11T08:01:52.498Z,89.40
2023-02-11T08:05:54.165Z,89.12
2023-02-11T08:09:55.861Z,88.41
2023-02-11T08:13:57.456Z,87.91
2023-02-11T08:17:59.112Z,87.86
2023-02-11T08:22:01.489Z,87.60
2023-02-11T08:26:05.168Z,87.07
2023-02-11T08:30:07.310Z,86.99
2023-02-11T08:34:11.535Z,86.41
2023-02-11T08:38:13.252Z,85.94
2023-02-11T08:42:18.961Z,85.70
2023-02-11T08:46:20.769Z,84.85
2023-02-11T08:50:22.399Z,84.68
2023-02-11T08:54:24.209Z,84.64
2023-02-11T08:58:26.942Z,84.52
2023-02-11T09:02:28.702Z,82.99
2023-02-11T09:06:30.611Z,82.49
2023-02-11T09:10:32.444Z,81.80
2023-02-11T09:14:34.097Z,81.07
2023-02-11T09:18:35.728Z,80.46
2023-02-11T09:22:37.302Z,79.55
2023-02-11T09:26:43.521Z,79.20
2023-02-11T09:30:45.278Z,79.37
2023-02-11T09:34:47.007Z,77.77
2023-02-11T09:38:49.334Z,77.69
2023-02-11T09:43:01.766Z,77.63
2023-02-11T09:47:15.790Z,75.75
2023-02-11T09:51:26.626Z,75.91
2023-02-11T09:55:39.500Z,75.66
2023-02-11T09:59:41.126Z,76.04
2023-02-11T10:03:54.250Z,75.60
2023-02-11T10:08:10.022Z,76.26
2023-02-11T10:12:32.852Z,75.13
2023-02-11T10:16:42.314Z,75.76
2023-02-11T10:21:03.875Z,75.12
2023-02-11T10:25:46.537Z,74.69
2023-02-11T10:30:03.652Z,74.35
2023-02-11T10:34:11.958Z,73.63
2023-02-11T10:38:13.623Z,73.14
2023-02-11T10:42:15.865Z,72.69
2023-02-11T10:46:22.258Z,71.00
2023-02-11T10:50:35.526Z,70.74
2023-02-11T10:54:37.077Z,70.34
2023-02-11T10:58:45.985Z,71.17
2023-02-11T11:02:55.766Z,71.93
2023-02-11T11:07:09.877Z,72.12
2023-02-11T11:11:17.000Z,72.15
2023-02-11T11:15:24.712Z,71.27
2023-02-11T11:19:26.287Z,71.73
2023-02-11T11:23:30.299Z,72.04
2023-02-11T11:27:32.513Z,72.01
2023-02-11T11:31:45.522Z,71.89
2023-02-11T11:35:56.980Z,71.70
2023-02-11T11:40:08.305Z,72.08
2023-02-11T11:44:33.962Z,72.47
2023-02-11T11:48:39.375Z,72.69
2023-02-11T11:52:55.151Z,72.59
2023-02-11T11:57:03.334Z,72.52
2023-02-11T12:01:26.363Z,72.62
2023-02-11T12:05:42.501Z,72.88
2023-02-11T12:10:08.491Z,73.07
2023-02-11T12:14:12.812Z,73.84
2023-02-11T12:18:38.735Z,74.41
2023-02-11T12:22:46.413Z,74.83
2023-02-11T12:26:56.858Z,75.42
2023-02-11T12:31:01.468Z,75.46
2023-02-11T12:35:28.576Z,75.25
2023-02-11T12:39:54.468Z,74.71
2023-02-11T12:43:56.178Z,74.61
2023-02-11T12:48:30.777Z,75.03
2023-02-11T12:52:41.199Z,75.02
2023-02-11T12:57:03.545Z,74.76
2023-02-11T13:01:10.788Z,75.37
2023-02-11T13:05:29.629Z,75.53
2023-02-11T13:09:55.381Z,75.37
2023-02-11T13:14:21.936Z,76.02
2023-02-11T13:19:05.032Z,76.41
2023-02-11T13:23:09.459Z,77.03
2023-02-11T13:27:21.126Z,77.77
2023-02-11T13:31:26.960Z,78.92
2023-02-11T13:35:37.083Z,79.17
2023-02-11T13:39:39.438Z,79.40
2023-02-11T13:43:41.187Z,79.61
2023-02-11T13:47:42.998Z,80.00
2023-02-11T13:51:45.300Z,80.14
2023-02-11T13:55:49.153Z,80.88
2023-02-11T13:59:52.392Z,81.21
2023-02-11T14:04:46.872Z,81.84
2023-02-11T14:08:59.545Z,82.70
2023-02-11T14:13:23.225Z,83.82
2023-02-11T14:17:33.116Z,84.24
2023-02-11T14:21:38.112Z,84.48
2023-02-11T14:25:42.993Z,85.25
2023-02-11T14:30:00.423Z,85.10
2023-02-11T14:34:17.424Z,85.55
2023-02-11T14:38:43.265Z,85.88
2023-02-11T14:42:45.421Z,86.19
2023-02-11T14:46:49.948Z,86.87
2023-02-11T14:50:54.739Z,87.36
2023-02-11T14:55:13.579Z,87.67
2023-02-11T14:59:21.375Z,88.18
2023-02-11T15:03:30.630Z,88.57
2023-02-11T15:07:32.420Z,89.27
2023-02-11T15:11:39.870Z,89.24
2023-02-11T15:15:41.745Z,88.85
2023-02-11T15:19:50.201Z,89.09
2023-02-11T15:24:00.417Z,88.57
2023-02-11T15:28:10.614Z,88.34
2023-02-11T15:32:18.126Z,88.06
2023-02-11T15:36:27.911Z,88.15
2023-02-11T15:40:34.528Z,88.18
2023-02-11T15:44:38.176Z,88.27
2023-02-11T15:48:47.231Z,88.57
2023-02-11T15:52:50.045Z,88.39
2023-02-11T15:56:52.466Z,89.15
2023-02-11T16:00:59.750Z,88.83
2023-02-11T16:05:05.348Z,89.01
2023-02-11T16:09:12.793Z,89.40
2023-02-11T16:13:14.325Z,89.84
2023-02-11T16:17:18.581Z,90.39
2023-02-11T16:21:22.151Z,90.70
2023-02-11T16:25:24.133Z,90.75
2023-02-11T16:29:32.170Z,90.60
2023-02-11T16:33:33.746Z,90.67
2023-02-11T16:37:38.143Z,91.44
2023-02-11T16:41:40.548Z,91.53
2023-02-11T16:45:42.196Z,91.50
2023-02-11T16:49:43.913Z,91.73
2023-02-11T16:53:45.602Z,92.14
2023-02-11T16:57:47.155Z,91.89
2023-02-11T17:01:51.422Z,92.23
2023-02-11T17:05:55.928Z,92.48
2023-02-11T17:09:57.857Z,92.70
2023-02-11T17:13:59.425Z,92.34
2023-02-11T17:18:01.055Z,92.88
2023-02-11T17:22:03.466Z,92.94
2023-02-11T17:26:06.394Z,92.99
2023-02-11T17:30:09.390Z,93.26
2023-02-11T17:34:11.785Z,93.06
2023-02-11T17:38:13.383Z,92.97
2023-02-11T17:42:14.956Z,93.25
2023-02-11T17:46:16.952Z,93.32
2023-02-11T17:50:18.802Z,93.35
2023-02-11T17:54:21.035Z,93.29
2023-02-11T17:58:23.501Z,93.58
2023-02-11T18:02:25.178Z,93.58
2023-02-11T18:06:26.896Z,94.13
2023-02-11T18:10:28.602Z,94.39
2023-02-11T18:14:30.135Z,94.40
2023-02-11T18:18:31.919Z,94.49
2023-02-11T18:22:39.153Z,94.31
2023-02-11T18:26:41.719Z,94.25
2023-02-11T18:30:43.411Z,94.41
2023-02-11T18:34:45.061Z,94.76
2023-02-11T18:38:46.823Z,94.75
2023-02-11T18:42:48.463Z,94.69
2023-02-11T18:46:50.488Z,94.62
2023-02-11T18:50:52.118Z,94.69
2023-02-11T18:54:53.642Z,94.95
2023-02-11T18:58:56.672Z,94.83
2023-02-11T19:02:58.853Z,94.90
2023-02-11T19:07:03.202Z,94.90
2023-02-11T19:11:05.238Z,94.90
2023-02-11T19:15:08.485Z,94.91
2023-02-11T19:19:10.291Z,94.97
2023-02-11T19:23:11.993Z,95.09
2023-02-11T19:27:13.543Z,95.10
2023-02-11T19:31:15.222Z,94.95
2023-02-11T19:35:16.937Z,95.13
2023-02-11T19:39:18.650Z,95.12
2023-02-11T19:43:20.222Z,95.03
2023-02-11T19:47:27.666Z,95.11
2023-02-11T19:51:30.075Z,95.09
2023-02-11T19:55:34.833Z,95.38
2023-02-11T19:59:36.850Z,95.31
2023-02-11T20:03:42.140Z,95.07
2023-02-11T20:07:44.254Z,95.09
2023-02-11T20:11:45.966Z,95.09
2023-02-11T20:15:47.691Z,95.11
2023-02-11T20:19:49.399Z,95.05
2023-02-11T20:23:52.219Z,95.14
2023-02-11T20:27:54.539Z,95.70
2023-02-11T20:31:56.227Z,95.37
2023-02-11T20:36:00.690Z,95.47
2023-02-11T20:40:02.282Z,95.54
2023-02-11T20:44:07.281Z,95.64
2023-02-11T20:48:08.866Z,95.87
2023-02-11T20:52:10.555Z,95.86
2023-02-11T20:56:12.439Z,95.86
2023-02-11T21:00:14.379Z,96.03
2023-02-11T21:04:18.977Z,96.40
2023-02-11T21:08:20.577Z,96.76
2023-02-11T21:12:22.432Z,97.18
2023-02-11T21:16:24.308Z,97.21
2023-02-11T21:20:25.962Z,97.13
2023-02-11T21:24:27.909Z,97.26
2023-02-11T21:28:29.704Z,97.66
2023-02-11T21:32:31.310Z,97.86
2023-02-11T21:36:33.532Z,98.11
2023-02-11T21:40:35.147Z,98.26
2023-02-11T21:44:36.791Z,98.51
2023-02-11T21:48:38.578Z,98.62
2023-02-11T21:52:40.138Z,99.13
2023-02-11T21:56:41.782Z,99.42
2023-02-11T22:00:43.451Z,99.83
2023-02-11T22:04:45.169Z,100.00
2023-02-11T22:08:48.483Z,100.00
2023-02-11T22:12:52.446Z,99.94
2023-02-11T22:16:54.081Z,99.87
2023-02-11T22:21:16.893Z,100.00
2023-02-11T22:25:18.661Z,100.00
2023-02-11T22:29:20.217Z,100.00
2023-02-11T22:33:24.078Z,100.00
2023-02-11T22:37:25.653Z,100.00
2023-02-11T22:41:27.314Z,100.00
2023-02-11T22:45:28.979Z,100.00
2023-02-11T22:49:32.538Z,100.00
2023-02-11T22:53:34.907Z,100.00
2023-02-11T22:57:36.458Z,100.00
2023-02-11T23:01:38.070Z,100.00
2023-02-11T23:05:42.710Z,100.00
2023-02-11T23:09:44.499Z,100.00
2023-02-11T23:13:47.594Z,100.00
2023-02-11T23:17:49.165Z,100.00
2023-02-11T23:21:52.186Z,100.00
2023-02-11T23:25:53.930Z,100.00
2023-02-11T23:29:56.709Z,100.00
2023-02-11T23:33:58.267Z,100.00
2023-02-11T23:37:59.840Z,100.00
2023-02-11T23:42:01.613Z,100.00
2023-02-11T23:46:03.623Z,100.00
2023-02-11T23:50:07.307Z,100.00
2023-02-11T23:54:14.584Z,100.00
2023-02-11T23:58:16.276Z,100.00
